Time;durP1;ratioP1;P1;durP2;ratioP2;P2;SDS_P1;SDS_P2;PMS_P1;PMS_P2;Temp;Humidity;BMP_temperature;BMP_pressure;BME280_temperature;BME280_humidity;BME280_pressure;Samples;Min_cycle;Max_cycle;Signal;HPM_P1;HPM_P2
2021/12/06 00:00:14;;;;;;;25.25;17.17;;;3.90;76.00;;;;;;5048832;28;20048;-72
2021/12/06 00:02:40;;;;;;;24.73;18.00;;;3.80;75.90;;;;;;5051480;28;20045;-72
2021/12/06 00:05:07;;;;;;;23.35;16.70;;;3.80;76.00;;;;;;5050339;28;20072;-73
2021/12/06 00:07:33;;;;;;;24.15;16.90;;;3.80;76.00;;;;;;5050092;28;20048;-73
2021/12/06 00:09:58;;;;;;;23.17;17.20;;;3.70;75.90;;;;;;5050883;28;20052;-73
2021/12/06 00:12:24;;;;;;;23.60;17.00;;;3.70;76.00;;;;;;5051520;28;20082;-73
2021/12/06 00:14:50;;;;;;;24.35;16.90;;;3.70;76.10;;;;;;5049727;28;20048;-73
2021/12/06 00:17:17;;;;;;;24.90;17.77;;;3.70;76.10;;;;;;5048434;28;20044;-73
2021/12/06 00:19:44;;;;;;;23.60;17.13;;;3.70;76.20;;;;;;5032036;28;20053;-73
2021/12/06 00:22:13;;;;;;;24.73;17.80;;;3.70;76.20;;;;;;5049446;28;20045;-73
2021/12/06 00:24:39;;;;;;;24.92;17.10;;;3.70;76.20;;;;;;5050239;28;20060;-73
2021/12/06 00:27:05;;;;;;;27.70;18.45;;;3.70;76.10;;;;;;5048033;28;20093;-73
2021/12/06 00:29:31;;;;;;;24.83;17.90;;;3.70;76.00;;;;;;5049339;28;20424;-73
2021/12/06 00:31:57;;;;;;;25.02;16.98;;;3.60;75.90;;;;;;5054059;28;20041;-73
2021/12/06 00:34:25;;;;;;;24.65;17.27;;;3.60;76.00;;;;;;5053467;28;20115;-72
2021/12/06 00:36:54;;;;;;;25.90;17.45;;;3.60;76.00;;;;;;5054652;28;20147;-73
2021/12/06 00:39:22;;;;;;;28.23;19.25;;;3.60;75.90;;;;;;5053808;28;20057;-73
2021/12/06 00:41:48;;;;;;;27.17;18.33;;;3.60;76.00;;;;;;5053206;28;20051;-73
2021/12/06 00:44:14;;;;;;;31.75;19.92;;;3.60;75.90;;;;;;5053357;28;20041;-73
2021/12/06 00:46:40;;;;;;;33.40;20.88;;;3.60;75.90;;;;;;5053275;28;20041;-73
2021/12/06 00:49:07;;;;;;;30.73;20.13;;;3.50;75.90;;;;;;5052796;28;20052;-73
2021/12/06 00:51:33;;;;;;;30.90;20.52;;;3.50;76.00;;;;;;5053264;28;20041;-73
2021/12/06 00:53:59;;;;;;;30.48;21.08;;;3.50;76.40;;;;;;5054229;28;20567;-73
2021/12/06 00:56:25;;;;;;;34.55;22.05;;;3.50;76.10;;;;;;5052488;28;20052;-73
2021/12/06 00:58:51;;;;;;;29.90;21.02;;;3.50;76.10;;;;;;5052564;28;20076;-73
2021/12/06 01:01:16;;;;;;;32.42;21.02;;;3.40;76.00;;;;;;5054051;28;20076;-74
2021/12/06 01:03:43;;;;;;;36.58;22.48;;;3.40;76.00;;;;;;5053934;28;20083;-73
2021/12/06 01:06:12;;;;;;;33.33;21.98;;;3.40;76.10;;;;;;5054316;28;20045;-74
2021/12/06 01:08:38;;;;;;;36.00;21.85;;;3.40;76.20;;;;;;5053871;28;20045;-73
2021/12/06 01:11:05;;;;;;;33.30;21.05;;;3.30;76.20;;;;;;5052698;28;20049;-73
2021/12/06 01:13:31;;;;;;;30.75;20.40;;;3.30;76.20;;;;;;5053270;28;20052;-73
2021/12/06 01:15:57;;;;;;;33.95;21.48;;;3.30;76.30;;;;;;5052786;28;20051;-73
2021/12/06 01:18:24;;;;;;;34.25;23.38;;;3.30;76.50;;;;;;5054163;28;20115;-73
2021/12/06 01:23:57;;;;;;;36.75;23.00;;;3.30;76.60;;;;;;5054254;28;20045;-73
2021/12/06 01:27:03;;;;;;;34.67;22.10;;;3.30;76.60;;;;;;5054275;28;20041;-73
2021/12/06 01:40:09;;;;;;;36.72;23.30;;;3.20;76.80;;;;;;5053467;28;20045;-73
2021/12/06 01:42:34;;;;;;;40.80;25.45;;;3.20;76.80;;;;;;5052695;28;20051;-73
2021/12/06 01:45:00;;;;;;;40.35;25.17;;;3.20;76.80;;;;;;5053663;28;20037;-73
2021/12/06 01:47:32;;;;;;;36.72;23.08;;;3.20;76.80;;;;;;5053681;28;20086;-73
2021/12/06 01:50:03;;;;;;;37.58;24.10;;;3.20;76.90;;;;;;5053700;28;20132;-73
2021/12/06 01:52:33;;;;;;;41.90;25.70;;;3.20;76.90;;;;;;5051373;28;20053;-73
2021/12/06 01:55:00;;;;;;;35.10;22.60;;;3.20;76.90;;;;;;5052489;28;20838;-74
2021/12/06 01:57:28;;;;;;;39.95;24.25;;;3.20;76.90;;;;;;5052658;28;20514;-73
2021/12/06 01:59:55;;;;;;;39.22;25.30;;;3.20;77.00;;;;;;5053526;28;20077;-73
2021/12/06 02:02:24;;;;;;;37.63;24.13;;;3.20;77.00;;;;;;5053175;28;20505;-74
2021/12/06 02:04:51;;;;;;;39.33;23.85;;;3.30;77.10;;;;;;5051816;28;20045;-73
2021/12/06 02:07:19;;;;;;;37.20;23.58;;;3.30;77.10;;;;;;5053369;28;20057;-73
2021/12/06 02:09:47;;;;;;;37.72;22.88;;;3.30;77.00;;;;;;5051603;28;20041;-73
2021/12/06 02:12:15;;;;;;;37.22;22.33;;;3.30;77.00;;;;;;5052127;28;20048;-73
2021/12/06 02:14:57;;;;;;;38.15;24.02;;;3.20;76.80;;;;;;5052901;28;20112;-73
2021/12/06 02:17:28;;;;;;;37.38;23.52;;;3.20;76.90;;;;;;5053129;28;20537;-74
2021/12/06 02:20:04;;;;;;;40.65;24.15;;;3.20;77.00;;;;;;5052266;28;20090;-73
2021/12/06 02:22:33;;;;;;;38.63;22.73;;;3.20;77.00;;;;;;5052328;28;20052;-73
2021/12/06 02:25:01;;;;;;;38.85;23.65;;;3.20;77.00;;;;;;5050989;28;20063;-73
2021/12/06 02:27:29;;;;;;;39.42;22.90;;;3.20;77.00;;;;;;5053040;28;20052;-73
2021/12/06 02:29:58;;;;;;;37.97;24.88;;;3.30;77.10;;;;;;5052112;28;20067;-73
2021/12/06 02:32:25;;;;;;;41.22;24.70;;;3.20;77.00;;;;;;5052687;28;20472;-73
2021/12/06 02:34:55;;;;;;;40.42;24.27;;;3.20;77.00;;;;;;5053183;28;20112;-73
2021/12/06 02:37:27;;;;;;;38.42;23.60;;;3.20;77.00;;;;;;5051736;28;20048;-73
2021/12/06 02:39:54;;;;;;;37.83;21.65;;;3.20;77.20;;;;;;5035607;28;20385;-73
2021/12/06 02:42:20;;;;;;;37.17;21.98;;;3.30;77.10;;;;;;5052793;28;20430;-72
2021/12/06 02:44:47;;;;;;;39.08;23.35;;;3.30;77.10;;;;;;5052862;28;20045;-73
2021/12/06 02:47:14;;;;;;;33.30;22.20;;;3.20;77.00;;;;;;5052860;28;20433;-73
2021/12/06 02:49:40;;;;;;;42.42;25.05;;;3.30;77.10;;;;;;5052439;28;20037;-73
2021/12/06 02:52:07;;;;;;;37.67;22.75;;;3.20;77.00;;;;;;5052823;28;20045;-73
2021/12/06 02:54:33;;;;;;;37.75;23.40;;;3.20;77.00;;;;;;5051250;28;20132;-73
2021/12/06 02:59:39;;;;;;;39.75;23.13;;;3.20;77.10;;;;;;5051152;28;20048;-73
2021/12/06 03:02:20;;;;;;;37.25;21.85;;;3.30;77.10;;;;;;5051740;28;20075;-73
2021/12/06 03:04:45;;;;;;;42.05;24.58;;;3.30;77.00;;;;;;5051465;28;20552;-73
2021/12/06 03:07:12;;;;;;;38.50;23.33;;;3.30;77.00;;;;;;5052428;28;20128;-73
2021/12/06 03:09:39;;;;;;;34.30;22.92;;;3.30;77.00;;;;;;5047281;28;20045;-73
2021/12/06 03:12:10;;;;;;;39.50;23.52;;;3.30;77.00;;;;;;5056884;28;20044;-73
2021/12/06 03:14:42;;;;;;;40.78;23.80;;;3.30;77.00;;;;;;5056124;28;20132;-72
2021/12/06 03:17:11;;;;;;;37.30;23.15;;;3.30;77.10;;;;;;5056559;28;20381;-73
2021/12/06 03:19:37;;;;;;;37.33;23.88;;;3.30;77.20;;;;;;5055791;28;20112;-72
2021/12/06 03:22:05;;;;;;;38.33;23.30;;;3.30;77.20;;;;;;5056583;28;20043;-73
2021/12/06 03:24:30;;;;;;;39.20;23.75;;;3.30;77.20;;;;;;5056028;28;20033;-73
2021/12/06 03:26:56;;;;;;;38.83;24.88;;;3.30;77.20;;;;;;5056496;28;20045;-73
2021/12/06 03:29:23;;;;;;;38.60;23.25;;;3.30;77.10;;;;;;5054845;28;20041;-73
2021/12/06 03:31:49;;;;;;;36.97;22.73;;;3.40;77.20;;;;;;5056386;28;20095;-73
2021/12/06 03:34:17;;;;;;;40.60;24.02;;;3.40;77.20;;;;;;5055153;28;20048;-73
2021/12/06 03:36:43;;;;;;;41.47;25.27;;;3.30;77.20;;;;;;5055763;28;20381;-73
2021/12/06 03:39:26;;;;;;;41.92;24.73;;;3.30;77.10;;;;;;5054444;28;20041;-73
2021/12/06 03:41:56;;;;;;;40.67;23.70;;;3.40;77.20;;;;;;5054812;28;20052;-73
2021/12/06 03:44:22;;;;;;;36.50;23.23;;;3.40;77.20;;;;;;5055742;28;20041;-73
2021/12/06 03:46:53;;;;;;;39.88;23.02;;;3.40;77.10;;;;;;5055874;28;20052;-73
2021/12/06 03:49:19;;;;;;;36.70;22.77;;;3.30;77.00;;;;;;5054552;28;20048;-73
2021/12/06 03:51:46;;;;;;;38.17;23.15;;;3.30;76.90;;;;;;5054055;28;20045;-73
2021/12/06 03:54:16;;;;;;;37.60;22.75;;;3.40;77.00;;;;;;5055597;28;20091;-73
2021/12/06 03:56:43;;;;;;;37.30;22.95;;;3.40;77.00;;;;;;5055296;28;20064;-73
2021/12/06 03:59:10;;;;;;;39.95;23.05;;;3.40;77.10;;;;;;5055896;28;20107;-73
2021/12/06 04:01:35;;;;;;;38.35;23.77;;;3.40;77.10;;;;;;5054248;28;20143;-73
2021/12/06 04:04:04;;;;;;;35.22;22.55;;;3.40;77.00;;;;;;5054234;28;20508;-73
2021/12/06 04:06:30;;;;;;;36.10;22.95;;;3.40;77.00;;;;;;5053424;28;20059;-74
2021/12/06 04:08:56;;;;;;;38.15;23.05;;;3.40;77.00;;;;;;5055953;28;20049;-74
2021/12/06 04:11:22;;;;;;;37.42;23.73;;;3.40;77.00;;;;;;5055241;28;20055;-74
2021/12/06 04:13:48;;;;;;;35.00;22.13;;;3.40;77.00;;;;;;5055803;28;20044;-75
2021/12/06 04:16:14;;;;;;;38.70;23.55;;;3.40;77.00;;;;;;5052961;28;20045;-74
2021/12/06 04:18:39;;;;;;;42.78;24.65;;;3.40;77.00;;;;;;5055742;28;20041;-73
2021/12/06 04:21:06;;;;;;;45.03;25.08;;;3.40;77.00;;;;;;5053271;28;20072;-74
2021/12/06 04:23:34;;;;;;;41.78;24.95;;;3.40;77.10;;;;;;5055555;28;20049;-73
2021/12/06 04:26:00;;;;;;;41.00;24.77;;;3.40;77.00;;;;;;5054670;28;20499;-73
2021/12/06 04:28:29;;;;;;;43.17;24.95;;;3.40;77.00;;;;;;5054096;28;20049;-74
2021/12/06 04:30:56;;;;;;;40.90;24.70;;;3.30;77.00;;;;;;5037074;28;20059;-74
2021/12/06 04:33:21;;;;;;;43.08;24.67;;;3.40;77.10;;;;;;5055376;28;20048;-74
2021/12/06 04:35:48;;;;;;;44.47;24.75;;;3.30;77.00;;;;;;5054330;28;20397;-74
2021/12/06 04:38:14;;;;;;;45.60;25.38;;;3.30;77.10;;;;;;5053813;28;20128;-73
2021/12/06 04:40:40;;;;;;;41.85;23.88;;;3.30;77.10;;;;;;5053580;28;20120;-73
2021/12/06 04:43:07;;;;;;;42.92;24.50;;;3.30;77.10;;;;;;5055128;28;20460;-74
2021/12/06 04:45:33;;;;;;;46.60;26.40;;;3.30;77.10;;;;;;5054638;28;20041;-74
2021/12/06 04:47:59;;;;;;;45.42;24.98;;;3.30;77.20;;;;;;5052993;28;20064;-73
2021/12/06 04:50:28;;;;;;;43.95;25.48;;;3.30;77.30;;;;;;5053214;28;20041;-73
2021/12/06 04:52:56;;;;;;;45.65;24.15;;;3.30;77.40;;;;;;5054347;28;20037;-73
2021/12/06 04:55:28;;;;;;;43.10;23.65;;;3.30;77.40;;;;;;5054371;28;20044;-73
2021/12/06 04:57:54;;;;;;;42.35;23.92;;;3.30;77.50;;;;;;5053752;28;20141;-73
2021/12/06 05:00:41;;;;;;;42.60;23.88;;;3.30;77.50;;;;;;5054565;28;20041;-73
2021/12/06 05:03:08;;;;;;;45.42;24.40;;;3.30;77.70;;;;;;5053955;28;20040;-73
2021/12/06 05:05:41;;;;;;;47.60;24.27;;;3.30;77.60;;;;;;5053109;28;20044;-73
2021/12/06 05:08:20;;;;;;;40.22;22.20;;;3.30;77.80;;;;;;5052784;28;20045;-73
2021/12/06 05:10:46;;;;;;;40.88;22.50;;;3.30;77.90;;;;;;5053246;28;20041;-73
2021/12/06 05:13:12;;;;;;;45.05;24.52;;;3.30;77.80;;;;;;5052403;28;20123;-74
2021/12/06 05:15:39;;;;;;;42.67;24.30;;;3.30;77.90;;;;;;5054182;28;20068;-73
2021/12/06 05:18:06;;;;;;;48.13;24.95;;;3.30;77.90;;;;;;5053856;28;20072;-73
2021/12/06 05:20:33;;;;;;;49.85;26.50;;;3.30;77.90;;;;;;5053916;28;20059;-73
2021/12/06 05:22:58;;;;;;;47.30;24.55;;;3.30;77.90;;;;;;5053895;28;20128;-73
2021/12/06 05:25:25;;;;;;;53.63;25.92;;;3.30;77.90;;;;;;5053378;28;20130;-74
2021/12/06 05:27:52;;;;;;;45.67;23.55;;;3.30;78.00;;;;;;5052426;28;20053;-73
2021/12/06 05:30:21;;;;;;;46.75;24.13;;;3.30;78.00;;;;;;5053765;28;20415;-73
2021/12/06 05:32:48;;;;;;;51.40;25.52;;;3.30;78.10;;;;;;5051667;28;20044;-73
2021/12/06 05:35:14;;;;;;;44.28;24.73;;;3.30;78.10;;;;;;5051946;28;20049;-73
2021/12/06 05:37:47;;;;;;;48.33;24.85;;;3.30;78.10;;;;;;5052266;28;20492;-73
2021/12/06 05:40:21;;;;;;;44.40;22.70;;;3.30;78.20;;;;;;5053627;28;20038;-73
2021/12/06 05:42:48;;;;;;;49.00;24.35;;;3.30;78.30;;;;;;5053438;28;20052;-73
2021/12/06 05:45:16;;;;;;;46.97;24.20;;;3.30;78.20;;;;;;5051922;28;20056;-73
2021/12/06 05:47:42;;;;;;;46.70;23.70;;;3.30;78.30;;;;;;5053628;28;20037;-74
2021/12/06 05:50:09;;;;;;;48.85;25.77;;;3.30;78.30;;;;;;5053703;28;20431;-73
2021/12/06 05:52:34;;;;;;;46.22;23.70;;;3.30;78.40;;;;;;5053453;28;20091;-74
2021/12/06 05:55:01;;;;;;;49.63;23.55;;;3.30;78.30;;;;;;5052044;28;20488;-74
2021/12/06 05:57:27;;;;;;;54.40;25.10;;;3.30;78.30;;;;;;5053480;28;20060;-73
2021/12/06 05:59:52;;;;;;;47.97;25.40;;;3.30;78.30;;;;;;5053062;28;20120;-73
2021/12/06 06:02:18;;;;;;;50.10;25.00;;;3.30;78.30;;;;;;5054466;28;20080;-73
2021/12/06 06:04:44;;;;;;;54.97;27.13;;;3.30;78.40;;;;;;5053927;28;20032;-74
2021/12/06 06:07:10;;;;;;;53.75;25.88;;;3.30;78.40;;;;;;5052457;28;20087;-73
2021/12/06 06:09:36;;;;;;;59.95;27.45;;;3.30;78.50;;;;;;5053689;28;20044;-74
2021/12/06 06:12:04;;;;;;;57.42;25.40;;;3.30;78.60;;;;;;5053600;28;20052;-74
2021/12/06 06:14:30;;;;;;;57.03;27.42;;;3.30;78.60;;;;;;5052491;28;20048;-73
2021/12/06 06:17:03;;;;;;;67.45;28.33;;;3.30;78.60;;;;;;5052249;28;20044;-73
2021/12/06 06:19:29;;;;;;;57.17;25.90;;;3.30;78.70;;;;;;5053578;28;20037;-73
2021/12/06 06:21:54;;;;;;;64.10;27.50;;;3.30;78.70;;;;;;5053707;28;20040;-72
2021/12/06 06:24:21;;;;;;;63.92;29.15;;;3.30;78.70;;;;;;5053034;28;20047;-74
2021/12/06 06:26:47;;;;;;;67.50;29.50;;;3.30;78.80;;;;;;5052969;28;20369;-74
2021/12/06 06:29:13;;;;;;;63.13;28.33;;;3.30;78.90;;;;;;5052862;28;20043;-73
2021/12/06 06:31:39;;;;;;;68.15;29.42;;;3.30;78.90;;;;;;5053487;28;20048;-74
2021/12/06 06:34:05;;;;;;;68.28;30.05;;;3.30;78.90;;;;;;5052865;28;20510;-81
2021/12/06 06:36:31;;;;;;;61.72;28.20;;;3.40;79.10;;;;;;5032732;28;20050;-81
2021/12/06 06:38:57;;;;;;;61.80;27.85;;;3.30;79.10;;;;;;5042081;28;20033;-81
2021/12/06 06:41:22;;;;;;;64.15;28.75;;;3.30;79.20;;;;;;5052533;28;20047;-80
2021/12/06 06:43:49;;;;;;;68.40;29.30;;;3.40;79.40;;;;;;5053900;28;20519;-81
2021/12/06 06:46:15;;;;;;;72.13;30.98;;;3.40;79.50;;;;;;5057673;28;20053;-81
2021/12/06 06:48:40;;;;;;;66.10;29.63;;;3.40;79.50;;;;;;5057033;28;20079;-81
2021/12/06 06:51:06;;;;;;;68.53;29.05;;;3.40;79.50;;;;;;5057553;28;20052;-81
2021/12/06 06:53:32;;;;;;;66.68;29.88;;;3.50;79.60;;;;;;5057392;28;20134;-81
2021/12/06 06:55:57;;;;;;;68.30;29.23;;;3.50;79.60;;;;;;5056090;28;20068;-81
2021/12/06 06:58:24;;;;;;;65.72;28.85;;;3.50;79.60;;;;;;5056864;28;20146;-81
2021/12/06 07:00:50;;;;;;;69.25;28.67;;;3.50;79.60;;;;;;5055971;28;20120;-80
2021/12/06 07:03:15;;;;;;;66.80;27.55;;;3.60;79.60;;;;;;5056359;28;20432;-81
2021/12/06 07:05:41;;;;;;;73.72;31.73;;;3.60;79.50;;;;;;5055590;28;20224;-80
2021/12/06 07:08:07;;;;;;;69.07;28.35;;;3.60;79.50;;;;;;5056912;28;20052;-81
2021/12/06 07:10:33;;;;;;;76.20;31.35;;;3.60;79.50;;;;;;5055561;28;20049;-80
2021/12/06 07:13:03;;;;;;;73.03;30.80;;;3.70;79.50;;;;;;5055855;28;20040;-80
2021/12/06 07:15:33;;;;;;;65.25;29.52;;;3.70;79.30;;;;;;5055208;28;20045;-80
2021/12/06 07:18:00;;;;;;;66.57;30.08;;;3.70;79.20;;;;;;5034798;28;20515;-80
2021/12/06 07:20:26;;;;;;;61.72;29.25;;;3.70;79.30;;;;;;5056029;28;20045;-81
2021/12/06 07:22:53;;;;;;;63.72;30.30;;;3.70;79.30;;;;;;5055072;28;20079;-81
2021/12/06 07:25:21;;;;;;;66.55;30.40;;;3.70;79.30;;;;;;5054800;28;20121;-81
2021/12/06 07:27:47;;;;;;;63.00;28.98;;;3.80;79.40;;;;;;5052339;28;20052;-82
2021/12/06 07:30:14;;;;;;;72.25;31.27;;;3.80;79.30;;;;;;5053925;28;20049;-81
2021/12/06 07:32:40;;;;;;;66.00;29.75;;;3.80;79.30;;;;;;5056522;28;20080;-81
2021/12/06 07:35:08;;;;;;;66.00;29.83;;;3.80;79.30;;;;;;5055809;28;20119;-82
2021/12/06 07:37:34;;;;;;;60.15;31.23;;;3.90;79.30;;;;;;5055376;28;20045;-82
2021/12/06 07:40:01;;;;;;;66.75;31.85;;;3.90;79.30;;;;;;5056584;28;20075;-81
2021/12/06 07:42:26;;;;;;;62.05;27.92;;;4.00;79.20;;;;;;5055219;28;20052;-81
2021/12/06 07:44:52;;;;;;;61.28;28.65;;;4.00;79.10;;;;;;5055423;28;20041;-81
2021/12/06 07:47:19;;;;;;;63.40;30.23;;;4.00;78.90;;;;;;5056511;28;20049;-81
2021/12/06 07:49:45;;;;;;;62.78;29.88;;;4.00;78.70;;;;;;5055715;28;20094;-81
2021/12/06 07:52:11;;;;;;;60.42;27.88;;;4.00;78.60;;;;;;5056182;28;20480;-81
2021/12/06 07:54:38;;;;;;;65.28;30.52;;;4.00;78.50;;;;;;5055482;28;20037;-81
2021/12/06 07:57:05;;;;;;;62.70;31.52;;;4.10;78.50;;;;;;5054831;28;20073;-81
2021/12/06 07:59:31;;;;;;;61.08;30.35;;;4.00;78.20;;;;;;5055432;28;20040;-81
2021/12/06 08:01:57;;;;;;;62.67;29.98;;;4.10;78.10;;;;;;5055683;28;20061;-81
2021/12/06 08:04:23;;;;;;;56.28;27.38;;;4.10;78.00;;;;;;5055378;28;20495;-81
2021/12/06 08:06:49;;;;;;;62.28;28.38;;;4.00;78.00;;;;;;5054403;28;20092;-80
2021/12/06 08:09:15;;;;;;;59.47;27.98;;;4.00;77.90;;;;;;5054068;28;20076;-81
2021/12/06 08:11:41;;;;;;;52.13;25.95;;;4.10;77.90;;;;;;5037270;28;20132;-81
2021/12/06 08:14:07;;;;;;;53.60;27.85;;;4.10;77.80;;;;;;5054645;28;20476;-79
2021/12/06 08:16:40;;;;;;;58.58;27.23;;;4.10;77.60;;;;;;5054130;28;20052;-79
2021/12/06 08:19:07;;;;;;;50.95;26.13;;;4.00;77.40;;;;;;5055144;28;20037;-78
2021/12/06 08:21:33;;;;;;;43.83;24.27;;;4.10;77.40;;;;;;5053051;28;20087;-80
2021/12/06 08:23:59;;;;;;;51.97;25.90;;;4.00;77.10;;;;;;5055228;28;20040;-81
2021/12/06 08:26:30;;;;;;;48.17;25.50;;;4.00;76.90;;;;;;5053129;28;20044;-80
2021/12/06 08:28:57;;;;;;;53.10;25.02;;;4.00;76.90;;;;;;5055665;28;20048;-80
2021/12/06 08:31:23;;;;;;;49.72;24.67;;;4.00;76.90;;;;;;5055135;28;20389;-79
2021/12/06 08:33:50;;;;;;;52.38;26.58;;;4.00;76.90;;;;;;5055264;28;20041;-80
2021/12/06 08:36:16;;;;;;;48.95;26.50;;;4.00;76.80;;;;;;5054656;28;20045;-80
2021/12/06 08:38:42;;;;;;;50.10;25.48;;;4.00;76.70;;;;;;5055122;28;20111;-80
2021/12/06 08:41:12;;;;;;;50.00;25.05;;;4.00;76.60;;;;;;5053491;28;20052;-80
2021/12/06 08:43:39;;;;;;;51.83;25.80;;;3.90;76.70;;;;;;5053807;28;20045;-80
2021/12/06 08:46:09;;;;;;;46.10;25.23;;;4.00;76.70;;;;;;5052640;28;20044;-80
2021/12/06 08:48:37;;;;;;;49.15;24.67;;;4.00;76.70;;;;;;5054709;28;20480;-80
2021/12/06 08:51:08;;;;;;;51.13;26.20;;;4.00;76.60;;;;;;5053457;28;20040;-80
2021/12/06 08:53:34;;;;;;;43.10;25.02;;;4.00;76.50;;;;;;5053383;28;20041;-80
2021/12/06 08:56:00;;;;;;;47.45;25.88;;;4.00;76.50;;;;;;5054560;28;20045;-80
2021/12/06 08:58:26;;;;;;;50.28;25.95;;;4.00;76.50;;;;;;5053441;28;20451;-80
2021/12/06 09:00:52;;;;;;;45.63;24.42;;;3.90;76.20;;;;;;5053696;28;20083;-80
2021/12/06 09:03:18;;;;;;;52.47;26.23;;;3.90;76.20;;;;;;5054740;28;20055;-80
2021/12/06 09:05:48;;;;;;;49.92;26.27;;;3.90;76.20;;;;;;5052702;28;20135;-80
2021/12/06 09:08:14;;;;;;;54.03;28.58;;;3.90;76.30;;;;;;5054220;28;20551;-80
2021/12/06 09:10:41;;;;;;;59.38;28.45;;;3.90;76.30;;;;;;5054341;28;20144;-80
2021/12/06 09:13:06;;;;;;;54.80;28.25;;;4.00;76.40;;;;;;5053501;28;20515;-80
2021/12/06 09:15:33;;;;;;;60.42;29.73;;;3.90;76.40;;;;;;5054590;28;20048;-80
2021/12/06 09:17:59;;;;;;;56.95;29.95;;;4.00;76.40;;;;;;5053311;28;20112;-80
2021/12/06 09:20:30;;;;;;;56.40;30.10;;;4.00;76.30;;;;;;5053256;28;20164;-82
2021/12/06 09:22:56;;;;;;;60.10;30.58;;;4.00;76.30;;;;;;5054126;28;20056;-83
2021/12/06 09:25:22;;;;;;;60.53;32.58;;;4.00;76.30;;;;;;5054085;28;20052;-82
2021/12/06 09:27:48;;;;;;;65.65;32.60;;;4.00;76.30;;;;;;5053050;28;20159;-81
2021/12/06 09:30:19;;;;;;;59.72;31.35;;;4.00;76.30;;;;;;5052962;28;20055;-81
2021/12/06 09:32:45;;;;;;;58.20;28.10;;;4.00;76.40;;;;;;5052703;28;20055;-82
2021/12/06 09:35:15;;;;;;;60.85;29.40;;;4.00;76.30;;;;;;5053538;28;20037;-82
2021/12/06 09:37:42;;;;;;;54.40;27.42;;;4.00;76.10;;;;;;5036796;28;20052;-82
2021/12/06 09:40:09;;;;;;;47.28;24.38;;;4.00;76.00;;;;;;5053754;28;20435;-82
2021/12/06 09:42:37;;;;;;;49.85;25.40;;;4.00;76.10;;;;;;5053643;28;20037;-82
2021/12/06 09:45:09;;;;;;;52.08;25.40;;;4.00;76.20;;;;;;5036130;28;20537;-82
2021/12/06 09:47:35;;;;;;;44.97;24.67;;;4.00;76.20;;;;;;5049854;28;20044;-82
2021/12/06 09:50:02;;;;;;;46.60;23.55;;;4.00;76.20;;;;;;5053306;28;20044;-82
2021/12/06 09:52:28;;;;;;;41.03;23.70;;;4.10;76.20;;;;;;5052463;28;20460;-83
2021/12/06 09:54:55;;;;;;;41.65;22.50;;;4.10;76.10;;;;;;5053572;28;20048;-81
2021/12/06 09:57:21;;;;;;;43.22;22.55;;;4.10;76.00;;;;;;5053498;28;20052;-82
2021/12/06 09:59:47;;;;;;;37.90;21.48;;;4.10;75.90;;;;;;5052639;28;20167;-83
2021/12/06 10:02:17;;;;;;;38.75;21.45;;;4.10;75.80;;;;;;5052252;28;20395;-79
2021/12/06 10:04:50;;;;;;;40.88;21.55;;;4.10;75.80;;;;;;5053421;28;20045;-81
2021/12/06 10:07:17;;;;;;;38.03;20.52;;;4.00;75.80;;;;;;5051794;28;20047;-82
2021/12/06 10:09:44;;;;;;;38.97;21.10;;;4.00;75.60;;;;;;5053327;28;20496;-80
2021/12/06 10:12:11;;;;;;;40.58;21.77;;;4.00;75.70;;;;;;5052995;28;20044;-81
2021/12/06 10:14:37;;;;;;;40.13;21.42;;;4.00;75.80;;;;;;5051471;28;20084;-81
2021/12/06 10:17:05;;;;;;;46.78;22.73;;;4.10;75.90;;;;;;5051537;28;20206;-80
2021/12/06 10:19:31;;;;;;;43.17;21.45;;;4.10;76.00;;;;;;5051882;28;20053;-80
2021/12/06 10:21:57;;;;;;;42.63;22.70;;;4.10;75.90;;;;;;5052842;28;20033;-80
2021/12/06 10:24:26;;;;;;;48.85;24.50;;;4.10;75.80;;;;;;5062438;28;20045;-81
2021/12/06 10:27:03;;;;;;;40.90;22.52;;;4.10;75.70;;;;;;5071840;28;20053;-82
2021/12/06 10:29:55;;;;;;;41.08;22.67;;;4.10;75.70;;;;;;5053785;28;20033;-82
2021/12/06 10:32:24;;;;;;;44.88;22.77;;;4.10;75.70;;;;;;5053650;28;20037;-82
2021/12/06 10:34:58;;;;;;;41.20;22.23;;;4.10;75.80;;;;;;5053513;28;20048;-81
2021/12/06 10:37:31;;;;;;;46.58;24.23;;;4.10;75.90;;;;;;5053714;28;20112;-81
2021/12/06 10:39:58;;;;;;;41.75;22.75;;;4.10;76.00;;;;;;5052924;28;20041;-81
2021/12/06 10:42:36;;;;;;;46.28;23.20;;;4.10;76.00;;;;;;5052352;28;20059;-80
2021/12/06 10:45:07;;;;;;;42.72;22.35;;;4.10;76.00;;;;;;5051781;28;20041;-81
2021/12/06 10:47:34;;;;;;;42.22;22.98;;;4.10;76.20;;;;;;5052082;28;20037;-81
2021/12/06 10:50:18;;;;;;;57.50;28.30;;;4.10;76.10;;;;;;5049179;28;20050;-82
2021/12/06 10:52:56;;;;;;;45.03;22.73;;;4.10;76.10;;;;;;5050651;28;20122;-82
2021/12/06 10:55:24;;;;;;;47.63;23.50;;;4.20;76.10;;;;;;5053063;28;20087;-83
2021/12/06 10:58:00;;;;;;;48.10;23.98;;;4.10;76.00;;;;;;5052290;28;20065;-82
2021/12/06 11:00:30;;;;;;;52.30;25.13;;;4.20;76.20;;;;;;5052476;28;20082;-82
2021/12/06 11:02:56;;;;;;;60.47;27.55;;;4.20;76.20;;;;;;5050699;28;20090;-81
2021/12/06 11:05:28;;;;;;;47.63;24.40;;;4.20;76.20;;;;;;5051738;28;20120;-83
2021/12/06 11:07:57;;;;;;;55.10;27.40;;;4.20;76.20;;;;;;5051219;28;20048;-82
2021/12/06 11:10:24;;;;;;;50.67;25.20;;;4.20;76.30;;;;;;5052360;28;20068;-82
2021/12/06 11:13:30;;;;;;;50.88;26.30;;;4.20;76.30;;;;;;5051040;28;20045;-82
2021/12/06 11:16:13;;;;;;;40.95;21.92;;;4.60;76.60;;;;;;5048670;28;20076;-81
2021/12/06 11:18:47;;;;;;;38.83;21.70;;;4.30;76.50;;;;;;5047606;28;20049;-82
2021/12/06 11:21:48;;;;;;;40.85;21.13;;;4.20;76.50;;;;;;5052427;28;20044;-82
2021/12/06 11:24:19;;;;;;;36.25;20.73;;;4.30;76.30;;;;;;4994523;28;20057;-81
2021/12/06 11:26:54;;;;;;;41.95;21.73;;;4.30;76.20;;;;;;5010211;28;20049;-82
2021/12/06 11:29:35;;;;;;;37.00;20.48;;;4.30;76.10;;;;;;4994145;28;20092;-82
2021/12/06 11:32:07;;;;;;;44.10;22.88;;;4.30;76.00;;;;;;5012909;28;20050;-82
2021/12/06 11:34:37;;;;;;;42.85;22.33;;;4.30;76.00;;;;;;5013905;28;20038;-82
2021/12/06 11:37:11;;;;;;;47.08;22.75;;;4.30;76.30;;;;;;5014134;28;20050;-82
2021/12/06 11:39:36;;;;;;;46.50;23.88;;;4.40;76.00;;;;;;4998045;28;20061;-81
2021/12/06 11:42:02;;;;;;;44.53;22.23;;;4.30;75.80;;;;;;4997861;28;20050;-82
2021/12/06 11:44:34;;;;;;;49.72;25.13;;;4.30;75.80;;;;;;5013551;28;20065;-81
2021/12/06 11:47:20;;;;;;;47.63;25.60;;;4.30;75.90;;;;;;4997833;28;20097;-82
2021/12/06 11:49:55;;;;;;;44.35;23.13;;;4.20;75.80;;;;;;4981574;28;20050;-82
2021/12/06 11:52:22;;;;;;;;;;;4.30;76.00;;;;;;5014055;28;20046;-82
2021/12/06 11:55:09;;;;;;;50.78;24.08;;;4.20;76.00;;;;;;4997106;28;19929;-82
2021/12/06 11:57:41;;;;;;;52.63;25.52;;;4.20;76.30;;;;;;5013251;28;20065;-83
2021/12/06 12:00:13;;;;;;;52.65;26.42;;;4.30;76.40;;;;;;5021175;28;20064;-83
2021/12/06 12:02:55;;;;;;;53.28;26.58;;;4.30;76.40;;;;;;5053964;28;20060;-82
2021/12/06 12:05:31;;;;;;;50.08;26.05;;;4.30;76.40;;;;;;5055461;28;20041;-82
2021/12/06 12:08:16;;;;;;;53.83;26.70;;;4.30;76.40;;;;;;5055676;28;20056;-82
2021/12/06 12:10:53;;;;;;;47.65;25.48;;;4.30;76.30;;;;;;5052062;28;20045;-82
2021/12/06 12:13:35;;;;;;;50.03;25.65;;;4.30;76.20;;;;;;5036479;28;20061;-82
2021/12/06 12:16:04;;;;;;;52.38;27.23;;;4.30;76.20;;;;;;5047178;28;20053;-83
2021/12/06 12:18:31;;;;;;;55.42;29.00;;;4.20;76.10;;;;;;5054899;28;20087;-82
2021/12/06 12:20:57;;;;;;;55.22;26.83;;;4.30;76.20;;;;;;5054984;28;20033;-81
2021/12/06 12:23:31;;;;;;;56.60;27.75;;;4.20;76.10;;;;;;5052531;28;20837;-82
2021/12/06 12:26:02;;;;;;;56.90;28.50;;;4.30;76.30;;;;;;5054258;28;20087;-83
2021/12/06 12:28:39;;;;;;;60.42;29.90;;;4.30;76.30;;;;;;5037974;28;20085;-87
2021/12/06 12:31:09;;;;;;;54.53;28.77;;;4.20;76.20;;;;;;5054038;28;20045;-87
2021/12/06 12:33:36;;;;;;;59.00;30.13;;;4.20;76.20;;;;;;5055303;28;20037;-82
2021/12/06 12:36:13;;;;;;;61.10;30.35;;;4.20;76.30;;;;;;5055055;28;20048;-83
2021/12/06 12:38:42;;;;;;;58.00;29.08;;;4.20;76.30;;;;;;5054204;28;20048;-81
2021/12/06 12:41:12;;;;;;;55.83;28.63;;;4.20;76.50;;;;;;5053564;28;20523;-81
2021/12/06 12:43:46;;;;;;;54.65;28.52;;;4.20;76.60;;;;;;5054887;28;20585;-83
2021/12/06 12:46:19;;;;;;;53.15;29.40;;;4.20;76.50;;;;;;5055861;28;20451;-83
2021/12/06 12:48:53;;;;;;;58.60;29.23;;;4.20;76.40;;;;;;5050175;28;20057;-82
2021/12/06 12:51:24;;;;;;;57.42;26.95;;;4.20;76.40;;;;;;5043845;28;20049;-80
2021/12/06 12:54:06;;;;;;;61.83;29.55;;;4.20;76.50;;;;;;5053173;28;20379;-82
2021/12/06 12:56:37;;;;;;;58.78;28.08;;;4.20;76.50;;;;;;5051760;28;20087;-75
2021/12/06 12:59:30;;;;;;;59.47;29.40;;;4.10;76.30;;;;;;5053472;28;20053;-75
2021/12/06 13:02:13;;;;;;;61.53;29.48;;;4.10;76.40;;;;;;5054496;28;20369;-75